createdAt,value
2023-02-14T00:02:22.051Z,16.50
2023-02-14T00:04:48.500Z,16.70
2023-02-14T00:07:15.169Z,16.03
2023-02-14T00:09:41.507Z,16.33
2023-02-14T00:12:07.909Z,16.30
2023-02-14T00:14:52.869Z,15.52
2023-02-14T00:17:19.499Z,15.95
2023-02-14T00:19:45.986Z,15.53
2023-02-14T00:22:12.348Z,15.85
2023-02-14T00:24:38.771Z,15.90
2023-02-14T00:27:05.264Z,15.30
2023-02-14T00:29:32.648Z,14.80
2023-02-14T00:32:00.067Z,15.13
2023-02-14T00:34:27.201Z,15.40
2023-02-14T00:36:53.651Z,15.05
2023-02-14T00:39:20.554Z,15.57
2023-02-14T00:41:47.174Z,16.52
2023-02-14T00:44:13.823Z,16.37
2023-02-14T00:46:40.708Z,16.83
2023-02-14T00:49:07.094Z,18.05
2023-02-14T00:51:33.479Z,17.20
2023-02-14T00:54:00.502Z,18.45
2023-02-14T00:56:26.859Z,17.10
2023-02-14T00:58:53.245Z,17.85
2023-02-14T01:01:20.971Z,19.08
2023-02-14T01:03:47.606Z,19.58
2023-02-14T01:06:13.995Z,20.05
2023-02-14T01:08:40.381Z,21.33
2023-02-14T01:11:13.368Z,21.63
2023-02-14T01:13:40.383Z,21.40
2023-02-14T01:16:10.050Z,21.88
2023-02-14T01:18:37.136Z,21.58
2023-02-14T01:21:31.571Z,21.13
2023-02-14T01:24:01.528Z,20.85
2023-02-14T01:26:29.260Z,21.52
2023-02-14T01:28:56.258Z,22.00
2023-02-14T01:31:28.392Z,21.40
2023-02-14T01:33:55.812Z,20.07
2023-02-14T01:36:27.856Z,20.75
2023-02-14T01:38:59.773Z,21.13
2023-02-14T01:41:29.238Z,21.88
2023-02-14T01:44:01.429Z,21.48
2023-02-14T01:46:30.394Z,21.07
2023-02-14T01:49:05.401Z,21.90
2023-02-14T01:51:33.162Z,21.88
2023-02-14T01:54:00.654Z,22.25
2023-02-14T01:56:33.366Z,22.05
2023-02-14T01:59:02.728Z,22.03
2023-02-14T02:01:31.222Z,20.58
2023-02-14T02:04:09.132Z,22.05
2023-02-14T02:06:44.284Z,20.75
2023-02-14T02:09:34.098Z,19.48
2023-02-14T02:12:01.642Z,21.27
2023-02-14T02:14:28.906Z,20.13
2023-02-14T02:17:16.661Z,19.33
2023-02-14T02:19:58.168Z,19.70
2023-02-14T02:22:51.198Z,20.52
2023-02-14T02:25:36.570Z,19.10
2023-02-14T02:28:21.300Z,21.30
2023-02-14T02:30:59.379Z,20.70
2023-02-14T02:33:47.664Z,21.55
2023-02-14T02:36:35.332Z,20.17
2023-02-14T02:39:24.424Z,21.07
2023-02-14T02:42:02.666Z,20.23
2023-02-14T02:45:02.656Z,21.38
2023-02-14T02:47:47.800Z,21.35
2023-02-14T02:50:47.472Z,20.92
2023-02-14T02:53:34.040Z,21.83
2023-02-14T02:56:35.762Z,22.17
2023-02-14T02:59:20.982Z,21.67
2023-02-14T03:02:25.089Z,21.25
2023-02-14T03:04:56.219Z,19.92
2023-02-14T03:07:34.775Z,20.80
2023-02-14T03:10:11.517Z,20.45
2023-02-14T03:13:09.269Z,21.17
2023-02-14T03:15:53.776Z,20.58
2023-02-14T03:19:16.375Z,21.27
2023-02-14T03:22:08.008Z,21.03
2023-02-14T03:24:46.195Z,20.63
2023-02-14T03:27:21.557Z,21.25
2023-02-14T03:30:08.452Z,20.70
2023-02-14T03:32:53.623Z,20.75
2023-02-14T03:35:24.738Z,21.07
2023-02-14T03:37:58.120Z,21.77
2023-02-14T03:40:33.722Z,21.08
2023-02-14T03:43:10.106Z,20.60
2023-02-14T03:45:58.166Z,20.90
2023-02-14T03:48:27.306Z,20.07
2023-02-14T03:50:54.853Z,22.98
2023-02-14T03:53:25.402Z,22.23
2023-02-14T03:56:22.378Z,20.90
2023-02-14T03:58:53.252Z,21.80
2023-02-14T04:01:28.250Z,21.20
2023-02-14T04:03:57.703Z,21.08
2023-02-14T04:06:24.240Z,20.95
2023-02-14T04:08:50.716Z,21.30
2023-02-14T04:11:17.413Z,22.40
2023-02-14T04:13:43.833Z,21.77
2023-02-14T04:16:10.316Z,22.00
2023-02-14T04:18:55.152Z,22.23
2023-02-14T04:21:21.509Z,21.15
2023-02-14T04:23:47.872Z,21.98
2023-02-14T04:26:14.269Z,22.03
2023-02-14T04:28:40.718Z,21.90
2023-02-14T04:31:07.636Z,21.40
2023-02-14T04:33:34.350Z,22.58
2023-02-14T04:36:01.218Z,21.73
2023-02-14T04:38:28.023Z,21.83
2023-02-14T04:40:54.482Z,20.42
2023-02-14T04:43:20.888Z,21.80
2023-02-14T04:45:47.597Z,22.05
2023-02-14T04:48:14.332Z,21.58
2023-02-14T04:50:40.785Z,21.47
2023-02-14T04:53:07.136Z,22.10
2023-02-14T04:55:33.487Z,22.55
2023-02-14T04:57:59.859Z,22.27
2023-02-14T05:00:26.405Z,21.40
2023-02-14T05:02:52.820Z,23.23
2023-02-14T05:05:19.294Z,22.73
2023-02-14T05:07:47.684Z,22.65
2023-02-14T05:10:14.770Z,21.95
2023-02-14T05:12:41.250Z,21.40
2023-02-14T05:15:07.959Z,22.73
2023-02-14T05:17:34.335Z,21.50
2023-02-14T05:20:00.684Z,21.70
2023-02-14T05:22:27.054Z,22.80
2023-02-14T05:24:53.429Z,22.02
2023-02-14T05:27:19.774Z,22.63
2023-02-14T05:29:46.190Z,22.58
2023-02-14T05:32:12.572Z,23.45
2023-02-14T05:34:38.936Z,23.38
2023-02-14T05:37:05.352Z,25.08
2023-02-14T05:39:31.796Z,24.63
2023-02-14T05:41:59.400Z,23.38
2023-02-14T05:44:25.931Z,23.98
2023-02-14T05:46:52.426Z,23.73
2023-02-14T05:49:18.809Z,23.83
2023-02-14T05:51:45.181Z,24.43
2023-02-14T05:54:11.608Z,24.80
2023-02-14T05:56:38.192Z,26.20
2023-02-14T05:59:04.603Z,24.33
2023-02-14T06:01:30.970Z,25.90
2023-02-14T06:03:57.311Z,24.30
2023-02-14T06:06:23.653Z,25.77
2023-02-14T06:08:50.029Z,23.60
2023-02-14T06:11:16.423Z,24.10
2023-02-14T06:13:42.870Z,23.73
2023-02-14T06:16:09.272Z,23.00
2023-02-14T06:18:35.722Z,24.02
2023-02-14T06:21:02.501Z,23.70
2023-02-14T06:23:29.087Z,24.85
2023-02-14T06:25:55.462Z,23.13
2023-02-14T06:28:22.778Z,29.37
2023-02-14T06:30:49.266Z,26.33
2023-02-14T06:33:15.839Z,25.35
2023-02-14T06:35:42.199Z,24.55
2023-02-14T06:38:08.576Z,25.15
2023-02-14T06:40:35.044Z,25.93
2023-02-14T06:43:01.447Z,26.88
2023-02-14T06:45:27.869Z,26.00
2023-02-14T06:47:54.229Z,26.17
2023-02-14T06:50:20.664Z,27.75
2023-02-14T06:52:47.397Z,26.23
2023-02-14T06:55:13.894Z,25.30
2023-02-14T06:57:40.325Z,23.60
2023-02-14T07:00:07.433Z,27.60
2023-02-14T07:02:33.850Z,27.77
2023-02-14T07:05:00.274Z,25.07
2023-02-14T07:07:26.690Z,24.20
2023-02-14T07:09:53.079Z,24.55
2023-02-14T07:12:19.477Z,24.13
2023-02-14T07:14:45.855Z,22.48
2023-02-14T07:17:12.214Z,23.00
2023-02-14T07:19:38.639Z,22.15
2023-02-14T07:22:05.048Z,21.77
2023-02-14T07:24:31.452Z,21.92
2023-02-14T07:26:57.858Z,20.88
2023-02-14T07:29:24.323Z,21.40
2023-02-14T07:31:50.790Z,20.60
2023-02-14T07:34:17.219Z,20.27
2023-02-14T07:36:44.151Z,18.88
2023-02-14T07:39:10.732Z,18.75
2023-02-14T07:41:37.368Z,21.00
2023-02-14T07:44:03.877Z,18.75
2023-02-14T07:46:30.284Z,19.88
2023-02-14T07:48:56.670Z,21.83
2023-02-14T07:51:23.066Z,20.30
2023-02-14T07:53:49.511Z,20.63
2023-02-14T07:56:15.877Z,18.48
2023-02-14T07:58:42.256Z,19.35
2023-02-14T08:01:08.674Z,20.15
2023-02-14T08:03:35.030Z,17.80
2023-02-14T08:06:01.639Z,17.63
2023-02-14T08:08:30.224Z,17.38
2023-02-14T08:10:57.631Z,19.00
2023-02-14T08:13:24.614Z,17.13
2023-02-14T08:16:06.225Z,17.05
2023-02-14T08:18:44.359Z,18.13
2023-02-14T08:21:11.171Z,18.83
2023-02-14T08:23:37.849Z,19.50
2023-02-14T08:26:04.822Z,20.83
2023-02-14T08:28:32.969Z,19.40
2023-02-14T08:31:00.100Z,20.17
2023-02-14T08:33:26.702Z,17.00
2023-02-14T08:35:53.139Z,18.05
2023-02-14T08:38:19.900Z,16.17
2023-02-14T08:40:46.387Z,15.18
2023-02-14T08:43:13.434Z,14.53
2023-02-14T08:45:40.578Z,13.95
2023-02-14T08:48:12.595Z,13.00
2023-02-14T08:50:40.184Z,12.82
2023-02-14T08:53:11.370Z,12.98
2023-02-14T08:55:38.717Z,13.53
2023-02-14T08:58:06.599Z,13.00
2023-02-14T09:00:33.624Z,14.15
2023-02-14T09:03:00.454Z,13.48
2023-02-14T09:05:27.267Z,13.48
2023-02-14T09:07:56.271Z,12.90
2023-02-14T09:10:23.294Z,13.50
2023-02-14T09:12:50.435Z,13.02
2023-02-14T09:15:16.994Z,13.30
2023-02-14T09:17:43.634Z,13.75
2023-02-14T09:20:13.902Z,13.53
2023-02-14T09:22:40.485Z,14.23
2023-02-14T09:25:07.189Z,13.77
2023-02-14T09:27:33.613Z,13.98
2023-02-14T09:30:00.088Z,14.05
2023-02-14T09:32:27.214Z,14.30
2023-02-14T09:34:53.659Z,14.07
2023-02-14T09:37:38.820Z,13.15
2023-02-14T09:40:05.818Z,13.90
2023-02-14T09:42:38.384Z,13.75
2023-02-14T09:45:11.659Z,13.33
2023-02-14T09:47:47.034Z,14.05
2023-02-14T09:50:22.347Z,13.90
2023-02-14T09:52:52.485Z,13.75
2023-02-14T09:55:19.463Z,13.90
2023-02-14T09:58:09.572Z,13.53
2023-02-14T10:00:45.745Z,13.13
2023-02-14T10:03:18.308Z,12.57
2023-02-14T10:05:54.689Z,13.35
2023-02-14T10:08:52.397Z,13.13
2023-02-14T10:11:22.766Z,13.40
2023-02-14T10:13:53.487Z,12.98
2023-02-14T10:16:28.182Z,13.50
2023-02-14T10:19:13.232Z,13.65
2023-02-14T10:21:46.483Z,13.55
2023-02-14T10:24:21.196Z,13.40
2023-02-14T10:26:50.624Z,13.30
2023-02-14T10:29:19.328Z,13.60
2023-02-14T10:31:55.760Z,14.00
2023-02-14T10:34:50.268Z,13.95
2023-02-14T10:37:31.957Z,13.63
2023-02-14T10:40:32.672Z,14.43
2023-02-14T10:43:19.858Z,13.70
2023-02-14T10:46:18.218Z,13.25
2023-02-14T10:49:17.251Z,13.50
2023-02-14T10:51:55.681Z,14.07
2023-02-14T10:54:28.104Z,14.00
2023-02-14T10:57:04.468Z,14.18
2023-02-14T10:59:39.314Z,13.48
2023-02-14T11:02:10.948Z,14.32
2023-02-14T11:04:37.943Z,14.37
2023-02-14T11:07:04.327Z,14.55
2023-02-14T11:09:30.703Z,13.95
2023-02-14T11:11:59.530Z,14.07
2023-02-14T11:14:28.762Z,14.10
2023-02-14T11:16:56.850Z,14.23
2023-02-14T11:19:36.083Z,14.38
2023-02-14T11:22:04.277Z,15.35
2023-02-14T11:24:35.022Z,14.63
2023-02-14T11:27:14.779Z,15.80
2023-02-14T11:29:41.145Z,15.27
2023-02-14T11:32:15.333Z,15.07
2023-02-14T11:34:52.755Z,15.38
2023-02-14T11:37:21.870Z,14.77
2023-02-14T11:39:49.696Z,15.65
2023-02-14T11:42:32.417Z,14.83
2023-02-14T11:44:59.525Z,15.52
2023-02-14T11:47:31.389Z,14.90
2023-02-14T11:50:06.047Z,15.13
2023-02-14T11:52:33.638Z,16.17
2023-02-14T11:55:00.898Z,15.90
2023-02-14T11:57:33.427Z,15.73
2023-02-14T12:00:04.865Z,16.20
2023-02-14T12:02:38.219Z,15.90
2023-02-14T12:05:44.818Z,16.20
2023-02-14T12:08:12.031Z,15.90
2023-02-14T12:10:40.193Z,17.38
2023-02-14T12:13:09.610Z,16.20
2023-02-14T12:15:56.891Z,16.15
2023-02-14T12:18:51.327Z,17.25
2023-02-14T12:21:27.436Z,16.40
2023-02-14T12:24:22.820Z,17.40
2023-02-14T12:27:00.400Z,17.02
2023-02-14T12:29:41.672Z,16.67
2023-02-14T12:32:19.791Z,17.17
2023-02-14T12:34:46.573Z,16.97
2023-02-14T12:37:35.897Z,18.42
2023-02-14T12:40:16.394Z,16.88
2023-02-14T12:43:10.806Z,17.08
2023-02-14T12:46:04.451Z,17.17
2023-02-14T12:48:36.904Z,17.27
2023-02-14T12:51:11.772Z,17.20
2023-02-14T12:53:44.223Z,17.42
2023-02-14T12:56:45.029Z,17.98
2023-02-14T12:59:23.806Z,17.63
2023-02-14T13:02:28.017Z,17.07
2023-02-14T13:04:59.424Z,18.13
2023-02-14T13:07:58.154Z,17.95
2023-02-14T13:10:40.022Z,17.27
2023-02-14T13:13:18.576Z,17.10
2023-02-14T13:16:00.977Z,17.23
2023-02-14T13:18:47.321Z,17.20
2023-02-14T13:21:17.890Z,17.70
2023-02-14T13:23:47.749Z,17.48
2023-02-14T13:26:29.637Z,17.55
2023-02-14T13:29:02.941Z,16.67
2023-02-14T13:31:31.162Z,18.20
2023-02-14T13:34:03.529Z,17.88
2023-02-14T13:36:31.874Z,16.13
2023-02-14T13:38:59.960Z,17.98
2023-02-14T13:41:28.223Z,17.00
2023-02-14T13:43:56.349Z,18.65
2023-02-14T13:46:48.157Z,16.50
2023-02-14T13:49:23.642Z,16.58
2023-02-14T13:51:52.053Z,17.02
2023-02-14T13:54:42.846Z,17.00
2023-02-14T13:57:31.601Z,16.98
2023-02-14T14:00:36.514Z,17.02
2023-02-14T14:03:03.764Z,17.33
2023-02-14T14:05:30.150Z,18.00
2023-02-14T14:08:23.348Z,17.30
2023-02-14T14:11:12.833Z,16.73
2023-02-14T14:13:42.268Z,17.25
2023-02-14T14:16:24.243Z,17.10
2023-02-14T14:18:52.565Z,17.10
2023-02-14T14:21:32.425Z,17.90
2023-02-14T14:24:25.735Z,17.25
2023-02-14T14:26:58.169Z,17.85
2023-02-14T14:29:32.434Z,17.38
2023-02-14T14:31:58.975Z,17.58
2023-02-14T14:34:28.804Z,17.73
2023-02-14T14:37:06.992Z,17.52
2023-02-14T14:39:35.776Z,17.00
2023-02-14T14:42:07.662Z,17.52
2023-02-14T14:44:35.969Z,17.80
2023-02-14T14:47:02.666Z,17.33
2023-02-14T14:49:29.404Z,17.45
2023-02-14T14:51:57.375Z,17.15
2023-02-14T14:54:27.642Z,17.77
2023-02-14T14:57:03.547Z,17.63
2023-02-14T14:59:36.088Z,17.23
2023-02-14T15:02:04.041Z,17.85
2023-02-14T15:04:35.709Z,18.60
2023-02-14T15:07:20.915Z,18.17
2023-02-14T15:09:47.455Z,19.00
2023-02-14T15:12:38.912Z,19.10
2023-02-14T15:15:07.772Z,20.33
2023-02-14T15:17:34.231Z,19.83
2023-02-14T15:20:05.612Z,23.00
2023-02-14T15:22:47.231Z,21.27
2023-02-14T15:25:18.170Z,21.50
2023-02-14T15:27:44.775Z,20.23
2023-02-14T15:30:20.384Z,19.35
2023-02-14T15:32:49.400Z,18.90
2023-02-14T15:35:21.591Z,18.98
2023-02-14T15:37:50.329Z,20.00
2023-02-14T15:40:23.607Z,19.70
2023-02-14T15:42:56.390Z,21.77
2023-02-14T15:45:26.504Z,22.40
2023-02-14T15:48:16.835Z,23.08
2023-02-14T15:50:50.233Z,24.10
2023-02-14T15:53:19.550Z,20.52
2023-02-14T15:55:49.686Z,20.75
2023-02-14T15:58:22.360Z,20.77
2023-02-14T16:00:50.326Z,20.92
2023-02-14T16:03:23.299Z,20.73
2023-02-14T16:05:50.567Z,21.58
2023-02-14T16:08:34.942Z,20.75
2023-02-14T16:11:13.555Z,20.65
2023-02-14T16:13:42.816Z,22.60
2023-02-14T16:16:11.868Z,22.37
2023-02-14T16:18:44.274Z,21.95
2023-02-14T16:21:28.868Z,22.05
2023-02-14T16:24:07.208Z,21.52
2023-02-14T16:26:35.251Z,21.27
2023-02-14T16:29:06.318Z,22.00
2023-02-14T16:31:33.889Z,22.45
2023-02-14T16:34:00.483Z,21.98
2023-02-14T16:36:29.539Z,22.08
2023-02-14T16:38:56.759Z,22.05
2023-02-14T16:41:27.119Z,22.20
2023-02-14T16:43:54.319Z,21.85
2023-02-14T16:46:23.472Z,21.80
2023-02-14T16:48:52.163Z,22.65
2023-02-14T16:51:21.531Z,22.73
2023-02-14T16:53:49.695Z,21.70
2023-02-14T16:56:23.945Z,21.20
2023-02-14T16:58:50.340Z,21.40
2023-02-14T17:01:16.764Z,22.10
2023-02-14T17:03:43.477Z,23.88
2023-02-14T17:06:12.646Z,22.60
2023-02-14T17:08:41.823Z,22.45
2023-02-14T17:11:09.746Z,22.50
2023-02-14T17:13:41.121Z,22.98
2023-02-14T17:16:10.977Z,22.75
2023-02-14T17:18:38.663Z,22.87
2023-02-14T17:21:05.386Z,22.58
2023-02-14T17:23:31.741Z,22.42
2023-02-14T17:25:58.140Z,22.65
2023-02-14T17:28:26.491Z,23.05
2023-02-14T17:30:53.799Z,22.87
2023-02-14T17:33:20.257Z,23.38
2023-02-14T17:35:46.641Z,23.20
2023-02-14T17:38:13.020Z,23.80
2023-02-14T17:40:39.433Z,23.73
2023-02-14T17:43:05.877Z,24.70
2023-02-14T17:45:32.232Z,24.88
2023-02-14T17:47:58.653Z,25.23
2023-02-14T17:50:25.229Z,24.92
2023-02-14T17:52:57.961Z,25.02
2023-02-14T17:55:24.388Z,24.37
2023-02-14T17:57:52.538Z,23.67
2023-02-14T18:00:21.325Z,23.88
2023-02-14T18:02:47.769Z,23.08
2023-02-14T18:05:14.183Z,23.10
2023-02-14T18:07:40.849Z,23.63
2023-02-14T18:10:07.650Z,24.83
2023-02-14T18:12:34.021Z,23.73
2023-02-14T18:15:00.387Z,23.90
2023-02-14T18:17:26.745Z,25.75
2023-02-14T18:19:53.202Z,25.20
2023-02-14T18:22:19.616Z,25.38
2023-02-14T18:24:46.020Z,24.13
2023-02-14T18:27:15.772Z,26.33
2023-02-14T18:29:42.140Z,25.38
2023-02-14T18:32:08.518Z,26.00
2023-02-14T18:34:38.306Z,25.95
2023-02-14T18:37:05.990Z,25.88
2023-02-14T18:39:32.878Z,25.58
2023-02-14T18:42:00.855Z,28.48
2023-02-14T18:44:28.764Z,26.87
2023-02-14T18:46:55.229Z,26.63
2023-02-14T18:49:21.726Z,26.52
2023-02-14T18:51:49.108Z,26.08
2023-02-14T18:54:15.564Z,25.88
2023-02-14T18:56:41.946Z,27.77
2023-02-14T18:59:10.910Z,27.60
2023-02-14T19:01:41.915Z,28.23
2023-02-14T19:04:12.042Z,26.83
2023-02-14T19:06:40.889Z,28.40
2023-02-14T19:09:09.830Z,27.13
2023-02-14T19:11:36.715Z,27.42
2023-02-14T19:14:08.282Z,27.88
2023-02-14T19:16:36.674Z,28.20
2023-02-14T19:19:04.502Z,28.27
2023-02-14T19:21:33.942Z,31.30
2023-02-14T19:24:02.178Z,30.30
2023-02-14T19:26:36.969Z,29.95
2023-02-14T19:29:10.671Z,30.27
2023-02-14T19:31:40.046Z,30.65
2023-02-14T19:34:07.886Z,31.43
2023-02-14T19:36:37.469Z,30.52
2023-02-14T19:39:04.720Z,31.52
2023-02-14T19:41:34.421Z,29.67
2023-02-14T19:44:03.011Z,28.52
2023-02-14T19:46:29.436Z,30.87
2023-02-14T19:48:57.271Z,28.48
2023-02-14T19:51:30.077Z,30.77
2023-02-14T19:53:58.607Z,29.75
2023-02-14T19:56:31.348Z,29.20
2023-02-14T19:58:58.122Z,28.07
2023-02-14T20:01:34.612Z,29.25
2023-02-14T20:04:01.023Z,24.95
2023-02-14T20:06:29.415Z,25.50
2023-02-14T20:08:55.928Z,25.52
2023-02-14T20:11:42.286Z,21.67
2023-02-14T20:14:09.103Z,22.75
2023-02-14T20:16:36.907Z,21.35
2023-02-14T20:19:16.487Z,22.58
2023-02-14T20:21:45.488Z,22.60
2023-02-14T20:24:17.876Z,22.50
2023-02-14T20:26:45.581Z,21.90
2023-02-14T20:29:12.038Z,22.88
2023-02-14T20:31:45.133Z,22.95
2023-02-14T20:34:11.868Z,21.92
2023-02-14T20:36:38.790Z,22.53
2023-02-14T20:39:07.635Z,24.20
2023-02-14T20:41:35.231Z,24.92
2023-02-14T20:44:07.351Z,24.05
2023-02-14T20:46:34.908Z,25.17
2023-02-14T20:49:01.610Z,25.23
2023-02-14T20:51:28.405Z,24.05
2023-02-14T20:53:55.423Z,29.00
2023-02-14T20:56:25.454Z,31.17
2023-02-14T20:58:51.921Z,28.15
2023-02-14T21:01:21.761Z,27.57
2023-02-14T21:03:50.819Z,27.38
2023-02-14T21:06:19.146Z,28.92
2023-02-14T21:08:45.948Z,28.50
2023-02-14T21:11:14.095Z,28.23
2023-02-14T21:13:40.953Z,27.87
2023-02-14T21:16:15.176Z,27.50
2023-02-14T21:18:43.097Z,31.17
2023-02-14T21:21:15.044Z,28.33
2023-02-14T21:23:42.031Z,29.42
2023-02-14T21:26:08.483Z,31.33
2023-02-14T21:28:35.160Z,29.83
2023-02-14T21:31:08.003Z,29.95
2023-02-14T21:33:35.551Z,31.23
2023-02-14T21:36:10.411Z,30.27
2023-02-14T21:38:37.012Z,30.10
2023-02-14T21:41:06.405Z,30.98
2023-02-14T21:43:38.683Z,29.70
2023-02-14T21:46:09.868Z,28.85
2023-02-14T21:48:55.240Z,29.05
2023-02-14T21:51:22.306Z,28.27
2023-02-14T21:53:49.388Z,29.48
2023-02-14T21:56:19.646Z,31.85
2023-02-14T21:58:51.357Z,29.38
2023-02-14T22:01:21.136Z,29.70
2023-02-14T22:03:48.188Z,29.23
2023-02-14T22:06:15.020Z,28.50
2023-02-14T22:08:42.197Z,28.08
2023-02-14T22:11:11.453Z,27.90
2023-02-14T22:13:38.414Z,31.10
2023-02-14T22:16:13.084Z,28.60
2023-02-14T22:18:40.039Z,29.25
2023-02-14T22:21:09.327Z,30.35
2023-02-14T22:23:37.544Z,29.90
2023-02-14T22:26:09.499Z,29.85
2023-02-14T22:28:35.882Z,29.57
2023-02-14T22:31:02.863Z,28.05
2023-02-14T22:33:30.329Z,29.63
2023-02-14T22:35:57.952Z,30.88
2023-02-14T22:38:24.389Z,34.65
2023-02-14T22:40:50.745Z,32.33
2023-02-14T22:43:17.193Z,32.80
2023-02-14T22:45:43.546Z,32.72
2023-02-14T22:48:09.934Z,33.17
2023-02-14T22:50:36.571Z,31.98
2023-02-14T22:53:03.557Z,30.50
2023-02-14T22:55:30.771Z,30.17
2023-02-14T22:57:57.521Z,36.50
2023-02-14T23:00:24.761Z,33.85
2023-02-14T23:02:51.182Z,32.15
2023-02-14T23:05:17.696Z,31.13
2023-02-14T23:07:44.143Z,31.33
2023-02-14T23:10:10.914Z,31.27
2023-02-14T23:12:55.944Z,30.90
2023-02-14T23:15:40.848Z,34.63
2023-02-14T23:18:51.082Z,34.03
2023-02-14T23:21:36.187Z,33.72
2023-02-14T23:24:02.596Z,33.55
2023-02-14T23:26:28.945Z,32.83
2023-02-14T23:28:55.319Z,32.38
2023-02-14T23:31:21.797Z,33.47
2023-02-14T23:33:51.943Z,31.42
2023-02-14T23:36:18.473Z,33.30
2023-02-14T23:38:44.870Z,29.77
2023-02-14T23:41:30.347Z,38.22
2023-02-14T23:43:56.753Z,43.00
2023-02-14T23:46:23.636Z,35.95
2023-02-14T23:48:50.007Z,32.03
2023-02-14T23:51:16.439Z,31.33
2023-02-14T23:53:42.786Z,31.33
2023-02-14T23:56:09.134Z,32.23
2023-02-14T23:58:35.532Z,31.15
